sensor_id;sensor_type;location;lat;lon;timestamp;pressure;altitude;pressure_sealevel;temperature;humidity
69171;BME280;56279;47.902;12.308;2023-11-19T00:00:30;95522.59;;;5.16;100.00
69171;BME280;56279;47.902;12.308;2023-11-19T00:02:31;95519.78;;;5.18;100.00
69171;BME280;56279;47.902;12.308;2023-11-19T00:04:32;95509.84;;;5.20;100.00
69171;BME280;56279;47.902;12.308;2023-11-19T00:06:33;95522.69;;;5.21;100.00
69171;BME280;56279;47.902;12.308;2023-11-19T00:08:34;95517.47;;;5.21;100.00
69171;BME280;56279;47.902;12.308;2023-11-19T00:10:36;95513.03;;;5.22;100.00
69171;BME280;56279;47.902;12.308;2023-11-19T00:12:41;95507.00;;;5.21;100.00
69171;BME280;56279;47.902;12.308;2023-11-19T00:14:43;95510.16;;;5.23;100.00
69171;BME280;56279;47.902;12.308;2023-11-19T00:16:45;95509.94;;;5.25;100.00
69171;BME280;56279;47.902;12.308;2023-11-19T00:18:46;95512.31;;;5.26;100.00
69171;BME280;56279;47.902;12.308;2023-11-19T00:20:47;95505.25;;;5.27;100.00
69171;BME280;56279;47.902;12.308;2023-11-19T00:22:50;95498.44;;;5.26;100.00
69171;BME280;56279;47.902;12.308;2023-11-19T00:24:54;95500.81;;;5.27;100.00
69171;BME280;56279;47.902;12.308;2023-11-19T00:26:56;95505.00;;;5.28;100.00
69171;BME280;56279;47.902;12.308;2023-11-19T00:28:57;95493.75;;;5.28;100.00
69171;BME280;56279;47.902;12.308;2023-11-19T00:31:00;95483.28;;;5.28;100.00
69171;BME280;56279;47.902;12.308;2023-11-19T00:33:02;95486.69;;;5.28;100.00
69171;BME280;56279;47.902;12.308;2023-11-19T00:35:04;95487.25;;;5.30;100.00
69171;BME280;56279;47.902;12.308;2023-11-19T00:37:05;95468.13;;;5.30;100.00
69171;BME280;56279;47.902;12.308;2023-11-19T00:39:07;95472.59;;;5.29;100.00
69171;BME280;56279;47.902;12.308;2023-11-19T00:41:09;95462.91;;;5.30;100.00
69171;BME280;56279;47.902;12.308;2023-11-19T00:43:11;95466.31;;;5.30;100.00
69171;BME280;56279;47.902;12.308;2023-11-19T00:45:12;95476.47;;;5.27;100.00
69171;BME280;56279;47.902;12.308;2023-11-19T00:47:14;95465.94;;;5.22;100.00
69171;BME280;56279;47.902;12.308;2023-11-19T00:49:15;95458.34;;;5.20;100.00
69171;BME280;56279;47.902;12.308;2023-11-19T00:51:16;95468.00;;;5.20;100.00
69171;BME280;56279;47.902;12.308;2023-11-19T00:53:18;95474.81;;;5.21;100.00
69171;BME280;56279;47.902;12.308;2023-11-19T00:55:19;95472.44;;;5.19;100.00
69171;BME280;56279;47.902;12.308;2023-11-19T00:57:20;95459.34;;;5.19;100.00
69171;BME280;56279;47.902;12.308;2023-11-19T00:59:21;95451.50;;;5.19;100.00
69171;BME280;56279;47.902;12.308;2023-11-19T01:01:23;95443.66;;;5.19;100.00
69171;BME280;56279;47.902;12.308;2023-11-19T01:03:25;95444.22;;;5.21;100.00
69171;BME280;56279;47.902;12.308;2023-11-19T01:05:26;95448.16;;;5.24;100.00
69171;BME280;56279;47.902;12.308;2023-11-19T01:07:29;95447.69;;;5.27;100.00
69171;BME280;56279;47.902;12.308;2023-11-19T01:09:34;95447.44;;;5.28;100.00
69171;BME280;56279;47.902;12.308;2023-11-19T01:11:36;95446.44;;;5.29;100.00
69171;BME280;56279;47.902;12.308;2023-11-19T01:13:37;95442.22;;;5.28;100.00
69171;BME280;56279;47.902;12.308;2023-11-19T01:15:42;95454.28;;;5.29;100.00
69171;BME280;56279;47.902;12.308;2023-11-19T01:17:43;95456.91;;;5.29;100.00
69171;BME280;56279;47.902;12.308;2023-11-19T01:19:44;95446.44;;;5.29;100.00
69171;BME280;56279;47.902;12.308;2023-11-19T01:21:46;95436.97;;;5.28;100.00
69171;BME280;56279;47.902;12.308;2023-11-19T01:23:47;95438.59;;;5.29;100.00
69171;BME280;56279;47.902;12.308;2023-11-19T01:25:48;95440.94;;;5.31;100.00
69171;BME280;56279;47.902;12.308;2023-11-19T01:27:50;95445.16;;;5.32;100.00
69171;BME280;56279;47.902;12.308;2023-11-19T01:29:51;95435.25;;;5.34;100.00
69171;BME280;56279;47.902;12.308;2023-11-19T01:31:53;95433.72;;;5.38;100.00
69171;BME280;56279;47.902;12.308;2023-11-19T01:33:54;95428.00;;;5.41;100.00
69171;BME280;56279;47.902;12.308;2023-11-19T01:35:55;95426.75;;;5.43;100.00
69171;BME280;56279;47.902;12.308;2023-11-19T01:37:59;95432.28;;;5.47;100.00
69171;BME280;56279;47.902;12.308;2023-11-19T01:40:01;95420.78;;;5.48;100.00
69171;BME280;56279;47.902;12.308;2023-11-19T01:42:04;95414.50;;;5.49;100.00
69171;BME280;56279;47.902;12.308;2023-11-19T01:44:06;95415.03;;;5.51;100.00
69171;BME280;56279;47.902;12.308;2023-11-19T01:46:07;95411.41;;;5.52;100.00
69171;BME280;56279;47.902;12.308;2023-11-19T01:48:13;95414.56;;;5.54;100.00
69171;BME280;56279;47.902;12.308;2023-11-19T01:50:15;95413.28;;;5.56;100.00
69171;BME280;56279;47.902;12.308;2023-11-19T01:52:16;95402.56;;;5.58;100.00
69171;BME280;56279;47.902;12.308;2023-11-19T01:54:18;95405.75;;;5.60;100.00
69171;BME280;56279;47.902;12.308;2023-11-19T01:56:20;95408.91;;;5.62;100.00
69171;BME280;56279;47.902;12.308;2023-11-19T01:58:22;95404.22;;;5.64;100.00
69171;BME280;56279;47.902;12.308;2023-11-19T02:00:24;95396.13;;;5.66;100.00
69171;BME280;56279;47.902;12.308;2023-11-19T02:02:25;95394.31;;;5.66;100.00
69171;BME280;56279;47.902;12.308;2023-11-19T02:04:27;95400.34;;;5.67;100.00
69171;BME280;56279;47.902;12.308;2023-11-19T02:06:28;95398.25;;;5.69;100.00
69171;BME280;56279;47.902;12.308;2023-11-19T02:08:33;95391.44;;;5.68;100.00
69171;BME280;56279;47.902;12.308;2023-11-19T02:10:34;95394.59;;;5.70;100.00
69171;BME280;56279;47.902;12.308;2023-11-19T02:12:36;95388.88;;;5.73;100.00
69171;BME280;56279;47.902;12.308;2023-11-19T02:14:37;95383.38;;;5.74;100.00
69171;BME280;56279;47.902;12.308;2023-11-19T02:16:38;95386.78;;;5.75;100.00
69171;BME280;56279;47.902;12.308;2023-11-19T02:18:40;95380.28;;;5.77;100.00
69171;BME280;56279;47.902;12.308;2023-11-19T02:20:41;95374.25;;;5.77;100.00
69171;BME280;56279;47.902;12.308;2023-11-19T02:22:43;95373.22;;;5.78;100.00
69171;BME280;56279;47.902;12.308;2023-11-19T02:24:47;95373.78;;;5.80;100.00
69171;BME280;56279;47.902;12.308;2023-11-19T02:29:01;95367.81;;;5.84;100.00
69171;BME280;56279;47.902;12.308;2023-11-19T02:31:04;95371.25;;;5.85;100.00
69171;BME280;56279;47.902;12.308;2023-11-19T02:33:10;95374.09;;;5.83;100.00
69171;BME280;56279;47.902;12.308;2023-11-19T02:35:11;95357.56;;;5.83;100.00
69171;BME280;56279;47.902;12.308;2023-11-19T02:37:14;95364.63;;;5.82;100.00
69171;BME280;56279;47.902;12.308;2023-11-19T02:39:15;95361.22;;;5.82;100.00
69171;BME280;56279;47.902;12.308;2023-11-19T02:41:22;95355.19;;;5.81;100.00
69171;BME280;56279;47.902;12.308;2023-11-19T02:43:23;95348.94;;;5.82;100.00
69171;BME280;56279;47.902;12.308;2023-11-19T02:45:25;95346.31;;;5.82;100.00
69171;BME280;56279;47.902;12.308;2023-11-19T02:47:27;95341.06;;;5.82;100.00
69171;BME280;56279;47.902;12.308;2023-11-19T02:49:31;95338.19;;;5.84;100.00
69171;BME280;56279;47.902;12.308;2023-11-19T02:51:33;95326.94;;;5.83;100.00
69171;BME280;56279;47.902;12.308;2023-11-19T02:53:36;95318.06;;;5.84;100.00
69171;BME280;56279;47.902;12.308;2023-11-19T02:55:40;95317.06;;;5.85;100.00
69171;BME280;56279;47.902;12.308;2023-11-19T02:57:42;95307.13;;;5.87;100.00
69171;BME280;56279;47.902;12.308;2023-11-19T02:59:50;95303.44;;;5.88;100.00
69171;BME280;56279;47.902;12.308;2023-11-19T03:01:52;95297.66;;;5.86;100.00
69171;BME280;56279;47.902;12.308;2023-11-19T03:03:54;95284.81;;;5.85;100.00
69171;BME280;56279;47.902;12.308;2023-11-19T03:05:58;95287.44;;;5.85;100.00
69171;BME280;56279;47.902;12.308;2023-11-19T03:08:00;95287.97;;;5.87;100.00
69171;BME280;56279;47.902;12.308;2023-11-19T03:10:01;95292.97;;;5.88;100.00
69171;BME280;56279;47.902;12.308;2023-11-19T03:12:02;95286.44;;;5.91;100.00
69171;BME280;56279;47.902;12.308;2023-11-19T03:14:05;95285.16;;;5.93;100.00
69171;BME280;56279;47.902;12.308;2023-11-19T03:16:07;95284.94;;;5.95;100.00
69171;BME280;56279;47.902;12.308;2023-11-19T03:18:08;95286.75;;;5.94;100.00
69171;BME280;56279;47.902;12.308;2023-11-19T03:20:11;95287.28;;;5.96;100.00
69171;BME280;56279;47.902;12.308;2023-11-19T03:22:16;95288.63;;;5.99;100.00
69171;BME280;56279;47.902;12.308;2023-11-19T03:24:17;95276.88;;;6.01;100.00
69171;BME280;56279;47.902;12.308;2023-11-19T03:26:18;95262.47;;;6.04;100.00
69171;BME280;56279;47.902;12.308;2023-11-19T03:28:22;95258.56;;;6.06;100.00
69171;BME280;56279;47.902;12.308;2023-11-19T03:30:24;95260.69;;;6.09;100.00
69171;BME280;56279;47.902;12.308;2023-11-19T03:32:27;95250.72;;;6.11;100.00
69171;BME280;56279;47.902;12.308;2023-11-19T03:34:28;95255.78;;;6.18;100.00
69171;BME280;56279;47.902;12.308;2023-11-19T03:36:32;95246.38;;;6.22;100.00
69171;BME280;56279;47.902;12.308;2023-11-19T03:38:34;95241.41;;;6.25;100.00
69171;BME280;56279;47.902;12.308;2023-11-19T03:40:36;95247.22;;;6.33;100.00
69171;BME280;56279;47.902;12.308;2023-11-19T03:42:38;95240.19;;;6.38;100.00
69171;BME280;56279;47.902;12.308;2023-11-19T03:44:42;95237.63;;;6.43;100.00
69171;BME280;56279;47.902;12.308;2023-11-19T03:46:44;95242.38;;;6.46;100.00
69171;BME280;56279;47.902;12.308;2023-11-19T03:48:46;95240.00;;;6.50;100.00
69171;BME280;56279;47.902;12.308;2023-11-19T03:50:49;95246.88;;;6.56;100.00
69171;BME280;56279;47.902;12.308;2023-11-19T03:52:50;95246.88;;;6.61;100.00
69171;BME280;56279;47.902;12.308;2023-11-19T03:54:51;95242.22;;;6.68;100.00
69171;BME280;56279;47.902;12.308;2023-11-19T03:56:53;95247.25;;;6.74;100.00
69171;BME280;56279;47.902;12.308;2023-11-19T03:58:54;95246.50;;;6.79;100.00
69171;BME280;56279;47.902;12.308;2023-11-19T04:00:55;95238.88;;;6.82;100.00
69171;BME280;56279;47.902;12.308;2023-11-19T04:02:57;95247.28;;;6.84;100.00
69171;BME280;56279;47.902;12.308;2023-11-19T04:04:58;95238.13;;;6.87;100.00
69171;BME280;56279;47.902;12.308;2023-11-19T04:07:00;95237.84;;;6.88;100.00
69171;BME280;56279;47.902;12.308;2023-11-19T04:09:02;95229.97;;;6.88;100.00
69171;BME280;56279;47.902;12.308;2023-11-19T04:11:04;95229.22;;;6.88;100.00
69171;BME280;56279;47.902;12.308;2023-11-19T04:13:05;95232.06;;;6.86;100.00
69171;BME280;56279;47.902;12.308;2023-11-19T04:15:06;95230.50;;;6.85;100.00
69171;BME280;56279;47.902;12.308;2023-11-19T04:17:08;95236.56;;;6.86;100.00
69171;BME280;56279;47.902;12.308;2023-11-19T04:19:09;95233.38;;;6.84;100.00
69171;BME280;56279;47.902;12.308;2023-11-19T04:21:10;95235.22;;;6.83;100.00
69171;BME280;56279;47.902;12.308;2023-11-19T04:23:12;95233.63;;;6.82;100.00
69171;BME280;56279;47.902;12.308;2023-11-19T04:25:13;95235.47;;;6.82;100.00
69171;BME280;56279;47.902;12.308;2023-11-19T04:27:16;95247.00;;;6.81;100.00
69171;BME280;56279;47.902;12.308;2023-11-19T04:29:17;95246.22;;;6.80;100.00
69171;BME280;56279;47.902;12.308;2023-11-19T04:31:19;95251.47;;;6.80;100.00
69171;BME280;56279;47.902;12.308;2023-11-19T04:33:20;95264.31;;;6.82;100.00
69171;BME280;56279;47.902;12.308;2023-11-19T04:35:21;95255.16;;;6.84;100.00
69171;BME280;56279;47.902;12.308;2023-11-19T04:37:22;95250.69;;;6.85;100.00
69171;BME280;56279;47.902;12.308;2023-11-19T04:39:24;95256.75;;;6.85;100.00
69171;BME280;56279;47.902;12.308;2023-11-19T04:41:25;95254.66;;;6.87;100.00
69171;BME280;56279;47.902;12.308;2023-11-19T04:43:28;95256.22;;;6.88;100.00
69171;BME280;56279;47.902;12.308;2023-11-19T04:45:29;95261.22;;;6.90;100.00
69171;BME280;56279;47.902;12.308;2023-11-19T04:47:30;95257.53;;;6.91;100.00
69171;BME280;56279;47.902;12.308;2023-11-19T04:49:32;95258.09;;;6.93;100.00
69171;BME280;56279;47.902;12.308;2023-11-19T04:51:40;95266.72;;;6.93;100.00
69171;BME280;56279;47.902;12.308;2023-11-19T04:53:43;95261.25;;;6.95;100.00
69171;BME280;56279;47.902;12.308;2023-11-19T04:55:44;95272.28;;;6.97;100.00
69171;BME280;56279;47.902;12.308;2023-11-19T04:57:45;95271.22;;;6.98;100.00
69171;BME280;56279;47.902;12.308;2023-11-19T04:59:47;95272.53;;;7.01;100.00
69171;BME280;56279;47.902;12.308;2023-11-19T05:01:48;95268.09;;;7.01;100.00
69171;BME280;56279;47.902;12.308;2023-11-19T05:03:49;95261.81;;;7.02;100.00
69171;BME280;56279;47.902;12.308;2023-11-19T05:05:52;95267.81;;;7.03;100.00
69171;BME280;56279;47.902;12.308;2023-11-19T05:07:53;95262.34;;;7.04;100.00
69171;BME280;56279;47.902;12.308;2023-11-19T05:09:54;95274.66;;;7.04;100.00
69171;BME280;56279;47.902;12.308;2023-11-19T05:11:55;95272.56;;;7.06;100.00
69171;BME280;56279;47.902;12.308;2023-11-19T05:13:57;95267.84;;;7.08;100.00
69171;BME280;56279;47.902;12.308;2023-11-19T05:15:58;95274.16;;;7.07;100.00
69171;BME280;56279;47.902;12.308;2023-11-19T05:17:59;95282.03;;;7.07;100.00
69171;BME280;56279;47.902;12.308;2023-11-19T05:20:00;95283.06;;;7.06;100.00
69171;BME280;56279;47.902;12.308;2023-11-19T05:22:02;95269.16;;;7.05;100.00
69171;BME280;56279;47.902;12.308;2023-11-19T05:24:03;95284.13;;;7.05;100.00
69171;BME280;56279;47.902;12.308;2023-11-19T05:26:08;95285.16;;;7.04;100.00
69171;BME280;56279;47.902;12.308;2023-11-19T05:28:10;95289.88;;;7.02;100.00
69171;BME280;56279;47.902;12.308;2023-11-19T05:30:11;95283.31;;;6.99;100.00
69171;BME280;56279;47.902;12.308;2023-11-19T05:32:12;95288.03;;;6.97;100.00
69171;BME280;56279;47.902;12.308;2023-11-19T05:34:13;95283.81;;;6.96;100.00
69171;BME280;56279;47.902;12.308;2023-11-19T05:36:16;95283.00;;;6.95;100.00
69171;BME280;56279;47.902;12.308;2023-11-19T05:38:17;95284.59;;;6.96;100.00
69171;BME280;56279;47.902;12.308;2023-11-19T05:40:18;95283.81;;;6.96;100.00
69171;BME280;56279;47.902;12.308;2023-11-19T05:42:21;95283.00;;;6.95;100.00
69171;BME280;56279;47.902;12.308;2023-11-19T05:44:23;95278.56;;;6.96;100.00
69171;BME280;56279;47.902;12.308;2023-11-19T05:46:24;95271.47;;;6.96;100.00
69171;BME280;56279;47.902;12.308;2023-11-19T05:48:27;95270.44;;;6.97;100.00
69171;BME280;56279;47.902;12.308;2023-11-19T05:50:28;95270.97;;;7.00;100.00
69171;BME280;56279;47.902;12.308;2023-11-19T05:52:30;95280.69;;;6.99;100.00
69171;BME280;56279;47.902;12.308;2023-11-19T05:54:34;95279.66;;;7.00;100.00
69171;BME280;56279;47.902;12.308;2023-11-19T05:56:38;95284.34;;;7.03;100.00
69171;BME280;56279;47.902;12.308;2023-11-19T05:58:40;95293.03;;;7.04;100.00
69171;BME280;56279;47.902;12.308;2023-11-19T06:00:41;95289.38;;;7.05;100.00
69171;BME280;56279;47.902;12.308;2023-11-19T06:02:43;95292.00;;;7.05;100.00
69171;BME280;56279;47.902;12.308;2023-11-19T06:04:44;95293.06;;;7.09;100.00
69171;BME280;56279;47.902;12.308;2023-11-19T06:06:48;95298.56;;;7.12;100.00
69171;BME280;56279;47.902;12.308;2023-11-19T06:08:50;95305.41;;;7.13;100.00
69171;BME280;56279;47.902;12.308;2023-11-19T06:10:51;95300.97;;;7.14;100.00
69171;BME280;56279;47.902;12.308;2023-11-19T06:12:53;95303.06;;;7.17;100.00
69171;BME280;56279;47.902;12.308;2023-11-19T06:14:57;95306.78;;;7.21;100.00
69171;BME280;56279;47.902;12.308;2023-11-19T06:16:58;95313.06;;;7.25;100.00
69171;BME280;56279;47.902;12.308;2023-11-19T06:18:59;95309.94;;;7.28;100.00
69171;BME280;56279;47.902;12.308;2023-11-19T06:21:00;95317.28;;;7.31;100.00
69171;BME280;56279;47.902;12.308;2023-11-19T06:23:02;95308.91;;;7.34;100.00
69171;BME280;56279;47.902;12.308;2023-11-19T06:25:03;95320.75;;;7.36;100.00
69171;BME280;56279;47.902;12.308;2023-11-19T06:27:08;95308.94;;;7.39;100.00
69171;BME280;56279;47.902;12.308;2023-11-19T06:29:09;95318.38;;;7.40;100.00
69171;BME280;56279;47.902;12.308;2023-11-19T06:31:11;95327.56;;;7.42;100.00
69171;BME280;56279;47.902;12.308;2023-11-19T06:33:15;95325.50;;;7.44;100.00
69171;BME280;56279;47.902;12.308;2023-11-19T06:35:16;95324.97;;;7.47;100.00
69171;BME280;56279;47.902;12.308;2023-11-19T06:37:18;95331.56;;;7.50;100.00
69171;BME280;56279;47.902;12.308;2023-11-19T06:39:19;95331.03;;;7.53;100.00
69171;BME280;56279;47.902;12.308;2023-11-19T06:41:21;95332.38;;;7.55;100.00
69171;BME280;56279;47.902;12.308;2023-11-19T06:43:22;95335.25;;;7.59;100.00
69171;BME280;56279;47.902;12.308;2023-11-19T06:45:23;95331.34;;;7.61;100.00
69171;BME280;56279;47.902;12.308;2023-11-19T06:47:26;95338.69;;;7.64;100.00
69171;BME280;56279;47.902;12.308;2023-11-19T06:49:31;95332.16;;;7.67;100.00
69171;BME280;56279;47.902;12.308;2023-11-19T06:51:33;95332.69;;;7.69;100.00
69171;BME280;56279;47.902;12.308;2023-11-19T06:53:34;95331.09;;;7.73;100.00
69171;BME280;56279;47.902;12.308;2023-11-19T06:55:37;95320.09;;;7.76;100.00
69171;BME280;56279;47.902;12.308;2023-11-19T06:57:38;95323.25;;;7.78;100.00
69171;BME280;56279;47.902;12.308;2023-11-19T06:59:39;95320.09;;;7.81;100.00
69171;BME280;56279;47.902;12.308;2023-11-19T07:01:41;95318.81;;;7.84;100.00
69171;BME280;56279;47.902;12.308;2023-11-19T07:03:47;95327.22;;;7.86;100.00
69171;BME280;56279;47.902;12.308;2023-11-19T07:05:49;95325.91;;;7.88;100.00
69171;BME280;56279;47.902;12.308;2023-11-19T07:07:50;95330.63;;;7.91;100.00
69171;BME280;56279;47.902;12.308;2023-11-19T07:09:51;95322.22;;;7.94;100.00
69171;BME280;56279;47.902;12.308;2023-11-19T07:11:52;95330.41;;;7.98;100.00
69171;BME280;56279;47.902;12.308;2023-11-19T07:13:54;95332.50;;;8.01;100.00
69171;BME280;56279;47.902;12.308;2023-11-19T07:15:56;95330.16;;;8.04;100.00
69171;BME280;56279;47.902;12.308;2023-11-19T07:17:57;95333.81;;;8.08;100.00
69171;BME280;56279;47.902;12.308;2023-11-19T07:19:59;95335.94;;;8.11;100.00
69171;BME280;56279;47.902;12.308;2023-11-19T07:22:03;95340.69;;;8.14;100.00
69171;BME280;56279;47.902;12.308;2023-11-19T07:24:08;95352.25;;;8.18;100.00
69171;BME280;56279;47.902;12.308;2023-11-19T07:26:09;95348.84;;;8.23;100.00
69171;BME280;56279;47.902;12.308;2023-11-19T07:28:11;95342.28;;;8.25;100.00
69171;BME280;56279;47.902;12.308;2023-11-19T07:30:12;95342.56;;;8.29;100.00
69171;BME280;56279;47.902;12.308;2023-11-19T07:32:13;95341.00;;;8.33;100.00
69171;BME280;56279;47.902;12.308;2023-11-19T07:34:15;95339.66;;;8.35;100.00
69171;BME280;56279;47.902;12.308;2023-11-19T07:36:16;95337.03;;;8.41;100.00
69171;BME280;56279;47.902;12.308;2023-11-19T07:38:19;95338.88;;;8.45;100.00
69171;BME280;56279;47.902;12.308;2023-11-19T07:40:20;95345.72;;;8.51;100.00
69171;BME280;56279;47.902;12.308;2023-11-19T07:42:21;95347.81;;;8.54;100.00
69171;BME280;56279;47.902;12.308;2023-11-19T07:44:23;95350.47;;;8.59;100.00
69171;BME280;56279;47.902;12.308;2023-11-19T07:46:25;95347.84;;;8.64;100.00
69171;BME280;56279;47.902;12.308;2023-11-19T07:48:27;95336.78;;;8.67;100.00
69171;BME280;56279;47.902;12.308;2023-11-19T07:50:28;95337.31;;;8.74;100.00
69171;BME280;56279;47.902;12.308;2023-11-19T07:52:31;95339.16;;;8.79;100.00
69171;BME280;56279;47.902;12.308;2023-11-19T07:54:32;95346.25;;;8.83;100.00
69171;BME280;56279;47.902;12.308;2023-11-19T07:56:34;95341.22;;;8.87;100.00
69171;BME280;56279;47.902;12.308;2023-11-19T07:58:36;95343.84;;;8.92;100.00
69171;BME280;56279;47.902;12.308;2023-11-19T08:00:39;95335.97;;;8.97;100.00
69171;BME280;56279;47.902;12.308;2023-11-19T08:02:41;95343.84;;;9.02;100.00
69171;BME280;56279;47.902;12.308;2023-11-19T08:04:43;95339.09;;;9.09;100.00
69171;BME280;56279;47.902;12.308;2023-11-19T08:06:46;95344.38;;;9.14;100.00
69171;BME280;56279;47.902;12.308;2023-11-19T08:08:48;95332.50;;;9.17;100.00
69171;BME280;56279;47.902;12.308;2023-11-19T08:10:49;95336.47;;;9.19;100.00
69171;BME280;56279;47.902;12.308;2023-11-19T08:12:52;95328.00;;;9.22;100.00
69171;BME280;56279;47.902;12.308;2023-11-19T08:14:54;95342.47;;;9.25;100.00
69171;BME280;56279;47.902;12.308;2023-11-19T08:16:56;95344.88;;;9.26;100.00
69171;BME280;56279;47.902;12.308;2023-11-19T08:18:58;95350.38;;;9.30;100.00
69171;BME280;56279;47.902;12.308;2023-11-19T08:21:00;95346.69;;;9.31;100.00
69171;BME280;56279;47.902;12.308;2023-11-19T08:23:04;95349.31;;;9.36;100.00
69171;BME280;56279;47.902;12.308;2023-11-19T08:25:06;95351.91;;;9.41;100.00
69171;BME280;56279;47.902;12.308;2023-11-19T08:27:08;95343.19;;;9.45;100.00
69171;BME280;56279;47.902;12.308;2023-11-19T08:29:09;95347.16;;;9.48;100.00
69171;BME280;56279;47.902;12.308;2023-11-19T08:31:10;95350.31;;;9.50;100.00
69171;BME280;56279;47.902;12.308;2023-11-19T08:33:11;95360.84;;;9.50;100.00
69171;BME280;56279;47.902;12.308;2023-11-19T08:35:13;95352.16;;;9.49;100.00
69171;BME280;56279;47.902;12.308;2023-11-19T08:37:14;95350.84;;;9.47;100.00
69171;BME280;56279;47.902;12.308;2023-11-19T08:39:16;95347.44;;;9.46;100.00
69171;BME280;56279;47.902;12.308;2023-11-19T08:41:18;95349.25;;;9.46;100.00
69171;BME280;56279;47.902;12.308;2023-11-19T08:43:20;95357.16;;;9.46;100.00
69171;BME280;56279;47.902;12.308;2023-11-19T08:45:21;95348.47;;;9.45;100.00
69171;BME280;56279;47.902;12.308;2023-11-19T08:47:23;95355.34;;;9.46;100.00
69171;BME280;56279;47.902;12.308;2023-11-19T08:49:24;95345.59;;;9.47;100.00
69171;BME280;56279;47.902;12.308;2023-11-19T08:51:26;95349.53;;;9.49;100.00
69171;BME280;56279;47.902;12.308;2023-11-19T08:53:29;95358.75;;;9.52;100.00
69171;BME280;56279;47.902;12.308;2023-11-19T08:55:30;95355.03;;;9.53;100.00
69171;BME280;56279;47.902;12.308;2023-11-19T08:57:32;95354.78;;;9.54;100.00
69171;BME280;56279;47.902;12.308;2023-11-19T08:59:34;95351.88;;;9.56;100.00
69171;BME280;56279;47.902;12.308;2023-11-19T09:01:35;95356.06;;;9.57;100.00
69171;BME280;56279;47.902;12.308;2023-11-19T09:03:37;95353.19;;;9.58;100.00
69171;BME280;56279;47.902;12.308;2023-11-19T09:05:38;95358.69;;;9.62;100.00
69171;BME280;56279;47.902;12.308;2023-11-19T09:07:39;95364.22;;;9.65;100.00
69171;BME280;56279;47.902;12.308;2023-11-19T09:09:41;95362.63;;;9.69;100.00
69171;BME280;56279;47.902;12.308;2023-11-19T09:11:42;95364.97;;;9.76;100.00
69171;BME280;56279;47.902;12.308;2023-11-19T09:13:43;95366.53;;;9.82;100.00
69171;BME280;56279;47.902;12.308;2023-11-19T09:15:46;95354.38;;;9.86;100.00
69171;BME280;56279;47.902;12.308;2023-11-19T09:17:47;95362.28;;;9.91;100.00
69171;BME280;56279;47.902;12.308;2023-11-19T09:19:49;95365.41;;;9.93;100.00
69171;BME280;56279;47.902;12.308;2023-11-19T09:21:50;95350.91;;;9.96;100.00
69171;BME280;56279;47.902;12.308;2023-11-19T09:23:52;95368.03;;;9.98;100.00
69171;BME280;56279;47.902;12.308;2023-11-19T09:25:55;95362.19;;;10.01;100.00
69171;BME280;56279;47.902;12.308;2023-11-19T09:27:56;95361.66;;;10.04;100.00
69171;BME280;56279;47.902;12.308;2023-11-19T09:29:58;95355.06;;;10.07;100.00
69171;BME280;56279;47.902;12.308;2023-11-19T09:32:02;95346.88;;;10.13;100.00
69171;BME280;56279;47.902;12.308;2023-11-19T09:34:03;95342.38;;;10.19;100.00
69171;BME280;56279;47.902;12.308;2023-11-19T09:36:05;95341.78;;;10.27;100.00
69171;BME280;56279;47.902;12.308;2023-11-19T09:38:07;95339.09;;;10.37;100.00
69171;BME280;56279;47.902;12.308;2023-11-19T09:40:09;95341.88;;;10.51;100.00
69171;BME280;56279;47.902;12.308;2023-11-19T09:42:10;95347.31;;;10.64;100.00
69171;BME280;56279;47.902;12.308;2023-11-19T09:44:12;95342.47;;;10.76;100.00
69171;BME280;56279;47.902;12.308;2023-11-19T09:46:15;95341.34;;;10.87;100.00
69171;BME280;56279;47.902;12.308;2023-11-19T09:48:18;95338.88;;;10.96;100.00
69171;BME280;56279;47.902;12.308;2023-11-19T09:50:19;95343.28;;;11.05;100.00
69171;BME280;56279;47.902;12.308;2023-11-19T09:52:21;95354.81;;;11.15;100.00
69171;BME280;56279;47.902;12.308;2023-11-19T09:54:22;95349.19;;;11.21;100.00
69171;BME280;56279;47.902;12.308;2023-11-19T09:56:25;95348.06;;;11.27;100.00
69171;BME280;56279;47.902;12.308;2023-11-19T09:58:27;95356.72;;;11.33;100.00
69171;BME280;56279;47.902;12.308;2023-11-19T10:00:29;95350.09;;;11.35;100.00
69171;BME280;56279;47.902;12.308;2023-11-19T10:02:33;95357.25;;;11.35;100.00
69171;BME280;56279;47.902;12.308;2023-11-19T10:04:35;95354.38;;;11.31;100.00
69171;BME280;56279;47.902;12.308;2023-11-19T10:06:38;95354.66;;;11.30;100.00
69171;BME280;56279;47.902;12.308;2023-11-19T10:08:41;95352.25;;;11.33;100.00
69171;BME280;56279;47.902;12.308;2023-11-19T10:10:45;95341.69;;;11.33;100.00
69171;BME280;56279;47.902;12.308;2023-11-19T10:12:47;95347.81;;;11.29;100.00
69171;BME280;56279;47.902;12.308;2023-11-19T10:14:49;95336.72;;;11.27;100.00
69171;BME280;56279;47.902;12.308;2023-11-19T10:16:52;95336.22;;;11.25;100.00
69171;BME280;56279;47.902;12.308;2023-11-19T10:18:55;95338.88;;;11.25;100.00
69171;BME280;56279;47.902;12.308;2023-11-19T10:20:56;95338.88;;;11.25;100.00
69171;BME280;56279;47.902;12.308;2023-11-19T10:22:58;95338.06;;;11.24;100.00
69171;BME280;56279;47.902;12.308;2023-11-19T10:24:59;95333.34;;;11.21;100.00
69171;BME280;56279;47.902;12.308;2023-11-19T10:27:01;95328.56;;;11.23;100.00
69171;BME280;56279;47.902;12.308;2023-11-19T10:29:04;95329.34;;;11.24;100.00
69171;BME280;56279;47.902;12.308;2023-11-19T10:31:06;95325.66;;;11.25;100.00
69171;BME280;56279;47.902;12.308;2023-11-19T10:33:13;95325.88;;;11.28;100.00
69171;BME280;56279;47.902;12.308;2023-11-19T10:35:21;95321.09;;;11.30;99.92
69171;BME280;56279;47.902;12.308;2023-11-19T10:37:29;95319.44;;;11.34;99.86